Orbital elements of FENGYUN 1C DEB
| Launched | 9 May 1999 |
| Flight ended | – |
| Launch site | Taiyuan Space Center, PRC |
| Owner | People's Republic of China |
| NORAD ID | 31763 |
| Date fetched |
Epoch osculation |
Inc. [°] |
Ecc. | RA asc node [hr] |
Arg Peri. [°] |
Mean anom [°] |
Mean motion [rev/day] |
Abs. mag |
| Date fetched |
Epoch osculation |
Inc. [°] |
Ecc. | RA asc node [hr] |
Arg Peri. [°] |
Mean anom [°] |
Mean motion [rev/day] |
Abs. mag |
| 2026 May 05 17:57 | 2026 May 05 11:49:44 | 98.5187 | 0.05455 | 14.6016 | 57.0664 | 4.5635 | 13.50762 | – |
| 2026 May 04 17:57 | 2026 Apr 30 05:27:51 | 98.5185 | 0.05459 | 14.2991 | 70.7033 | 4.5635 | 13.50762 | – |
| 2026 May 03 17:57 | 2026 Apr 30 05:27:51 | 98.5185 | 0.05459 | 14.2991 | 70.7033 | 4.5635 | 13.50762 | – |
| 2026 May 02 17:57 | 2026 Apr 30 05:27:51 | 98.5185 | 0.05459 | 14.2991 | 70.7033 | 4.5635 | 13.50762 | – |
| 2026 May 01 17:56 | 2026 Apr 30 05:27:51 | 98.5185 | 0.05459 | 14.2991 | 70.7033 | 4.5635 | 13.50762 | – |
| 2026 Apr 30 17:56 | 2026 Apr 30 05:27:51 | 98.5185 | 0.05459 | 14.2991 | 70.7033 | 4.5635 | 13.50762 | – |
| 2026 Apr 29 17:57 | 2026 Apr 24 05:35:57 | 98.5183 | 0.05463 | 13.9546 | 86.2186 | 4.5635 | 13.50762 | – |
| 2026 Apr 28 17:56 | 2026 Apr 24 05:35:57 | 98.5183 | 0.05463 | 13.9546 | 86.2186 | 4.5635 | 13.50762 | – |
| 2026 Apr 27 17:58 | 2026 Apr 24 05:35:57 | 98.5183 | 0.05463 | 13.9546 | 86.2186 | 4.5635 | 13.50762 | – |
| 2026 Apr 26 17:58 | 2026 Apr 24 05:35:57 | 98.5183 | 0.05463 | 13.9546 | 86.2186 | 4.5635 | 13.50762 | – |
| 2026 Apr 25 17:58 | 2026 Apr 24 05:35:57 | 98.5183 | 0.05463 | 13.9546 | 86.2186 | 4.5635 | 13.50762 | – |
| 2026 Apr 24 17:59 | 2026 Apr 24 05:35:57 | 98.5183 | 0.05463 | 13.9546 | 86.2186 | 4.5635 | 13.50762 | – |
| 2026 Apr 23 17:57 | 2026 Apr 18 12:32:33 | 98.5173 | 0.05465 | 13.6265 | 100.9950 | 4.5635 | 13.50762 | – |
| 2026 Apr 22 17:57 | 2026 Apr 18 12:32:33 | 98.5173 | 0.05465 | 13.6265 | 100.9950 | 4.5635 | 13.50762 | – |
| 2026 Apr 21 17:57 | 2026 Apr 18 12:32:33 | 98.5173 | 0.05465 | 13.6265 | 100.9950 | 4.5635 | 13.50762 | – |
| 2026 Apr 20 17:57 | 2026 Apr 18 12:32:33 | 98.5173 | 0.05465 | 13.6265 | 100.9950 | 4.5635 | 13.50762 | – |
| 2026 Apr 19 17:58 | 2026 Apr 18 12:32:33 | 98.5173 | 0.05465 | 13.6265 | 100.9950 | 4.5635 | 13.50762 | – |
| 2026 Apr 18 17:56 | 2026 Apr 12 12:33:06 | 98.5163 | 0.05467 | 13.2818 | 116.5189 | 4.5635 | 13.50762 | – |
| 2026 Apr 16 17:57 | 2026 Apr 12 12:33:06 | 98.5163 | 0.05467 | 13.2818 | 116.5189 | 4.5635 | 13.50762 | – |
| 2026 Apr 14 17:57 | 2026 Apr 12 12:33:06 | 98.5163 | 0.05467 | 13.2818 | 116.5189 | 4.5635 | 13.50762 | – |
| 2026 Apr 13 17:57 | 2026 Apr 12 12:33:06 | 98.5163 | 0.05467 | 13.2818 | 116.5189 | 4.5635 | 13.50762 | – |
| 2026 Apr 12 17:57 | 2026 Apr 07 17:36:34 | 98.5167 | 0.05468 | 13.0067 | 128.8989 | 4.5635 | 13.50762 | – |
| 2026 Apr 11 17:57 | 2026 Apr 07 17:36:34 | 98.5167 | 0.05468 | 13.0067 | 128.8989 | 4.5635 | 13.50762 | – |
| 2026 Apr 10 17:58 | 2026 Apr 07 17:36:34 | 98.5167 | 0.05468 | 13.0067 | 128.8989 | 4.5635 | 13.50762 | – |
| 2026 Apr 09 18:01 | 2026 Apr 07 17:36:34 | 98.5167 | 0.05468 | 13.0067 | 128.8989 | 4.5635 | 13.50762 | – |
| 2026 Apr 08 17:57 | 2026 Apr 07 17:36:34 | 98.5167 | 0.05468 | 13.0067 | 128.8989 | 4.5635 | 13.50762 | – |